Map

Track Data

SID SEASON NUMBER BASIN SUBBASIN NAME ISO_TIME NATURE LAT LON WMO_WIND WMO_PRES WMO_AGENCY TRACK_TYPE DIST2LAND LANDFALL IFLAG USA_AGENCY USA_ATCF_ID USA_LAT USA_LON USA_RECORD USA_STATUS USA_WIND USA_PRES USA_SSHS USA_R34_NE USA_R34_SE USA_R34_SW USA_R34_NW USA_R50_NE USA_R50_SE USA_R50_SW USA_R50_NW USA_R64_NE USA_R64_SE USA_R64_SW USA_R64_NW USA_POCI USA_ROCI USA_RMW USA_EYE TOKYO_LAT TOKYO_LON TOKYO_GRADE TOKYO_WIND TOKYO_PRES TOKYO_R50_DIR TOKYO_R50_LONG TOKYO_R50_SHORT TOKYO_R30_DIR TOKYO_R30_LONG TOKYO_R30_SHORT TOKYO_LAND CMA_LAT CMA_LON CMA_CAT CMA_WIND CMA_PRES HKO_LAT HKO_LON HKO_CAT HKO_WIND HKO_PRES NEWDELHI_LAT NEWDELHI_LON NEWDELHI_GRADE NEWDELHI_WIND NEWDELHI_PRES NEWDELHI_CI NEWDELHI_DP NEWDELHI_POCI REUNION_LAT REUNION_LON REUNION_TYPE REUNION_WIND REUNION_PRES REUNION_TNUM REUNION_CI REUNION_RMW REUNION_R34_NE REUNION_R34_SE REUNION_R34_SW REUNION_R34_NW REUNION_R50_NE REUNION_R50_SE REUNION_R50_SW REUNION_R50_NW REUNION_R64_NE REUNION_R64_SE REUNION_R64_SW REUNION_R64_NW BOM_LAT BOM_LON BOM_TYPE BOM_WIND BOM_PRES BOM_TNUM BOM_CI BOM_RMW BOM_R34_NE BOM_R34_SE BOM_R34_SW BOM_R34_NW BOM_R50_NE BOM_R50_SE BOM_R50_SW BOM_R50_NW BOM_R64_NE BOM_R64_SE BOM_R64_SW BOM_R64_NW BOM_ROCI BOM_POCI BOM_EYE BOM_POS_METHOD BOM_PRES_METHOD NADI_LAT NADI_LON NADI_CAT NADI_WIND NADI_PRES WELLINGTON_LAT WELLINGTON_LON WELLINGTON_WIND WELLINGTON_PRES DS824_LAT DS824_LON DS824_STAGE DS824_WIND DS824_PRES TD9636_LAT TD9636_LON TD9636_STAGE TD9636_WIND TD9636_PRES TD9635_LAT TD9635_LON TD9635_WIND TD9635_PRES TD9635_ROCI NEUMANN_LAT NEUMANN_LON NEUMANN_CLASS NEUMANN_WIND NEUMANN_PRES MLC_LAT MLC_LON MLC_CLASS MLC_WIND MLC_PRES USA_GUST BOM_GUST BOM_GUST_PER REUNION_GUST REUNION_GUST_PER USA_SEAHGT USA_SEARAD_NE USA_SEARAD_SE USA_SEARAD_SW USA_SEARAD_NW STORM_SPEED STORM_DIR
1919261N16147 1919 37 WP MM NOT_NAMED 1919-09-18 09:00:00 NR 16.3000 147.000 main 2061 2061 __________O___ -1 16.3000 147.000 2 28 314
1919261N16147 1919 37 WP MM NOT_NAMED 1919-09-18 12:00:00 NR 17.2639 145.974 main 2056 1928 __________P___ -1 17.2639 145.974 2 27 314
1919261N16147 1919 37 WP MM NOT_NAMED 1919-09-18 15:00:00 NR 18.2103 144.964 main 1928 1792 __________P___ -1 18.2103 144.964 2 27 315
1919261N16147 1919 37 WP MM NOT_NAMED 1919-09-18 18:00:00 NR 19.1263 143.997 main 1792 1661 __________P___ -1 19.1263 143.997 2 25 315
1919261N16147 1919 37 WP MM NOT_NAMED 1919-09-18 21:00:00 NR 20.0000 143.100 main 1661 1545 __________O___ -1 20.0000 143.100 2 23 317
1919261N16147 1919 37 WP MM NOT_NAMED 1919-09-19 00:00:00 NR 20.8305 142.295 main 1545 1435 __________P___ -1 20.8305 142.295 2 22 319
1919261N16147 1919 37 WP MM NOT_NAMED 1919-09-19 03:00:00 NR 21.6577 141.572 main 1425 1315 __________P___ -1 21.6577 141.572 2 21 323
1919261N16147 1919 37 WP MM NOT_NAMED 1919-09-19 06:00:00 NR 22.5311 140.914 main 1315 1199 __________P___ -1 22.5311 140.914 2 22 327
1919261N16147 1919 37 WP MM NOT_NAMED 1919-09-19 09:00:00 NR 23.5000 140.300 main 1188 1045 __________O___ -1 23.5000 140.300 2 26 328
1919261N16147 1919 37 WP MM NOT_NAMED 1919-09-19 12:00:00 NR 24.7012 139.461 main 1035 882 __________P___ -1 24.7012 139.461 2 29 329
1919261N16147 1919 37 WP MM NOT_NAMED 1919-09-19 15:00:00 NR 25.9861 138.686 main 871 729 __________P___ -1 25.9861 138.686 2 28 335
1919261N16147 1919 37 WP MM NOT_NAMED 1919-09-19 18:00:00 NR 27.2525 138.141 main 715 606 __________P___ -1 27.2525 138.141 2 25 346
1919261N16147 1919 37 WP MM NOT_NAMED 1919-09-19 21:00:00 NR 28.4000 138.000 main 595 519 __________O___ -1 28.4000 138.000 2 21 8
1919261N16147 1919 37 WP MM NOT_NAMED 1919-09-20 00:00:00 NR 29.3008 138.480 main 524 499 __________P___ -1 29.3008 138.480 2 21 36
1919261N16147 1919 37 WP MM NOT_NAMED 1919-09-20 03:00:00 NR 30.0698 139.385 main 500 459 __________P___ -1 30.0698 139.385 2 23 51
1919261N16147 1919 37 WP MM NOT_NAMED 1919-09-20 06:00:00 NR 30.7529 140.523 main 452 421 __________P___ -1 30.7529 140.523 2 24 56
1919261N16147 1919 37 WP MM NOT_NAMED 1919-09-20 09:00:00 NR 31.4000 141.700 main 424 403 __________O___ -1 31.4000 141.700 2 24 54
1919261N16147 1919 37 WP MM NOT_NAMED 1919-09-20 12:00:00 NR 32.1197 142.767 main 410 399 __________P___ -1 32.1197 142.767 2 23 52
1919261N16147 1919 37 WP MM NOT_NAMED 1919-09-20 15:00:00 NR 32.8145 143.813 main 411 411 __________P___ -1 32.8145 143.813 2 21 51
1919261N16147 1919 37 WP MM NOT_NAMED 1919-09-20 18:00:00 NR 33.4764 144.728 main 424 424 __________P___ -1 33.4764 144.728 2 18 46
1919261N16147 1919 37 WP MM NOT_NAMED 1919-09-20 21:00:00 NR 34.1000 145.400 main 446 446 __________O___ -1 34.1000 145.400 2 15 34
1919261N16147 1919 37 WP MM NOT_NAMED 1919-09-21 00:00:00 NR 34.6974 145.728 main 449 446 __________P___ -1 34.6974 145.728 2 12 16
1919261N16147 1919 37 WP MM NOT_NAMED 1919-09-21 03:00:00 NR 35.2622 145.797 main 444 432 __________P___ -1 35.2622 145.797 2 11 358
1919261N16147 1919 37 WP MM NOT_NAMED 1919-09-21 06:00:00 NR 35.7961 145.692 main 432 407 __________P___ -1 35.7961 145.692 2 11 347
1919261N16147 1919 37 WP MM NOT_NAMED 1919-09-21 09:00:00 NR 36.3000 145.500 main 407 386 __________O___ -1 36.3000 145.500 2 8 335
1919261N16147 1919 37 WP MM NOT_NAMED 1919-09-21 12:00:00 NR 36.5485 145.251 main 386 350 __________P___ -1 36.5485 145.251 2 7 319
1919261N16147 1919 37 WP MM NOT_NAMED 1919-09-21 15:00:00 NR 36.8043 144.958 main 350 306 __________P___ -1 36.8043 144.958 2 8 330
1919261N16147 1919 37 WP MM NOT_NAMED 1919-09-21 18:00:00 NR 37.2575 144.735 main 301 275 __________P___ -1 37.2575 144.735 2 13 351
1919261N16147 1919 37 WP MM NOT_NAMED 1919-09-21 21:00:00 NR 38.1000 144.700 main 270 238 __________O___ -1 38.1000 144.700 2 24 5
1919261N16147 1919 37 WP MM NOT_NAMED 1919-09-22 00:00:00 NR 39.6465 144.977 main 248 163 __________P___ -1 39.6465 144.977 2 35 10
1919261N16147 1919 37 WP MM NOT_NAMED 1919-09-22 03:00:00 NR 41.5739 145.483 main 155 32 __________P___ -1 41.5739 145.483 2 41 13
1919261N16147 1919 37 WP MM NOT_NAMED 1919-09-22 06:00:00 NR 43.6391 146.176 main 46 0 __________P___ -1 43.6391 146.176 2 42 15
1919261N16147 1919 37 WP MM NOT_NAMED 1919-09-22 09:00:00 NR 45.6000 147.000 main 72 72 __________O___ -1 45.6000 147.000 2 38 18
1919261N16147 1919 37 WP MM NOT_NAMED 1919-09-22 12:00:00 NR 47.2738 147.897 main 210 210 __________P___ -1 47.2738 147.897 2 33 22
1919261N16147 1919 37 WP MM NOT_NAMED 1919-09-22 15:00:00 NR 48.6929 148.848 main 299 299 __________P___ -1 48.6929 148.848 2 30 26
1919261N16147 1919 37 WP MM NOT_NAMED 1919-09-22 18:00:00 NR 49.9412 149.849 main 383 318 __________P___ -1 49.9412 149.849 2 27 29
1919261N16147 1919 37 WP MM NOT_NAMED 1919-09-22 21:00:00 NR 51.1000 150.900 main 314 __________O___ -1 51.1000 150.900 2 27 30

Digital Typhoon Data and Search

About IBTrACS Database

This database is a web-friendly format of International Best Track Archive for Climate Stewardship (IBTrACS), a global best track data archive curated by NOAA dating back to 1842.

Updated: 2021-12-01